Time;durP1;ratioP1;P1;durP2;ratioP2;P2;SDS_P1;SDS_P2;PMS_P1;PMS_P2;Temp;Humidity;BMP_temperature;BMP_pressure;BME280_temperature;BME280_humidity;BME280_pressure;Samples;Min_cycle;Max_cycle;Signal;HPM_P1;HPM_P2
2023/10/20 00:00:32;;;;;;;;;;;;;;;17.14;63.51;98408.50;4954670;29;19914;-82
2023/10/20 00:02:57;;;;;;;;;;;;;;;17.12;63.69;98406.09;4948255;29;19934;-76
2023/10/20 00:05:22;;;;;;;;;;;;;;;17.11;63.84;98409.97;4943383;29;20001;-79
2023/10/20 00:07:47;;;;;;;;;;;;;;;17.09;63.94;98396.66;4952698;29;20441;-76
2023/10/20 00:10:13;;;;;;;;;;;;;;;17.08;63.74;98403.28;4950112;29;20476;-78
2023/10/20 00:12:41;;;;;;;;;;;;;;;17.09;63.98;98395.88;4961161;28;19931;-77
2023/10/20 00:15:09;;;;;;;;;;;;;;;17.09;63.91;98390.44;4951416;28;20290;-78
2023/10/20 00:17:34;;;;;;;;;;;;;;;17.09;63.96;98393.16;4953301;29;19926;-77
2023/10/20 00:19:59;;;;;;;;;;;;;;;17.07;63.78;98374.38;4950740;29;19925;-78
2023/10/20 00:22:25;;;;;;;;;;;;;;;17.06;64.11;98369.28;4950787;28;19926;-76
2023/10/20 00:24:50;;;;;;;;;;;;;;;17.04;64.25;98361.44;4946844;28;20294;-80
2023/10/20 00:27:15;;;;;;;;;;;;;;;17.05;64.06;98356.78;4950103;28;19924;-76
2023/10/20 00:29:41;;;;;;;;;;;;;;;17.03;64.02;98351.69;4951506;29;20290;-77
2023/10/20 00:32:06;;;;;;;;;;;;;;;17.03;64.44;98346.22;4942633;28;19927;-75
2023/10/20 00:34:32;;;;;;;;;;;;;;;17.03;64.43;98342.69;4949103;29;19945;-75
2023/10/20 00:36:57;;;;;;;;;;;;;;;17.01;64.46;98334.88;4966067;28;19961;-77
2023/10/20 00:39:23;;;;;;;;;;;;;;;17.01;64.58;98328.59;4947271;29;20306;-80
2023/10/20 00:41:48;;;;;;;;;;;;;;;17.01;64.58;98317.69;4947505;28;20006;-78
2023/10/20 00:44:14;;;;;;;;;;;;;;;17.00;64.42;98316.13;4947405;29;20005;-75
2023/10/20 00:46:40;;;;;;;;;;;;;;;17.01;64.41;98307.59;4965014;28;19929;-77
2023/10/20 00:49:08;;;;;;;;;;;;;;;17.03;64.30;98312.69;4943893;28;19918;-75
2023/10/20 00:51:33;;;;;;;;;;;;;;;17.02;64.79;98306.44;4953023;29;19926;-80
2023/10/20 00:53:59;;;;;;;;;;;;;;;17.02;64.73;98300.19;4961873;28;19925;-78
2023/10/20 00:56:25;;;;;;;;;;;;;;;17.01;64.39;98304.88;4940048;29;20363;-75
2023/10/20 00:58:51;;;;;;;;;;;;;;;17.01;64.41;98307.59;4968118;28;19931;-77
2023/10/20 01:01:16;;;;;;;;;;;;;;;17.01;64.61;98299.41;4957220;28;20295;-75
2023/10/20 01:03:42;;;;;;;;;;;;;;;17.01;64.33;98296.69;4945544;29;19919;-78
2023/10/20 01:06:07;;;;;;;;;;;;;;;17.00;64.86;98288.84;4946866;29;19918;-79
2023/10/20 01:08:33;;;;;;;;;;;;;;;17.01;65.02;98290.41;4942485;28;19933;-79
2023/10/20 01:10:59;;;;;;;;;;;;;;;17.00;64.89;98288.84;4950557;29;19926;-77
2023/10/20 01:13:25;;;;;;;;;;;;;;;17.01;64.79;98274.88;4962333;28;19930;-76
2023/10/20 01:15:50;;;;;;;;;;;;;;;17.01;64.97;98261.22;4942789;29;20398;-76
2023/10/20 01:18:15;;;;;;;;;;;;;;;17.02;64.91;98256.56;4943701;29;19969;-79
2023/10/20 01:20:41;;;;;;;;;;;;;;;17.01;64.93;98254.97;4950185;28;19933;-77
2023/10/20 01:23:06;;;;;;;;;;;;;;;17.01;64.67;98255.78;4944509;28;20363;-81
2023/10/20 01:25:32;;;;;;;;;;;;;;;17.01;64.77;98254.97;4949667;29;20438;-77
2023/10/20 01:27:58;;;;;;;;;;;;;;;17.01;64.93;98260.41;4942668;28;19977;-80
2023/10/20 01:30:25;;;;;;;;;;;;;;;17.01;64.60;98253.06;4948812;29;19931;-80
2023/10/20 01:32:50;;;;;;;;;;;;;;;17.03;64.89;98239.06;4952717;29;19918;-77
2023/10/20 01:35:15;;;;;;;;;;;;;;;17.01;65.02;98247.59;4962821;28;19933;-76
2023/10/20 01:37:40;;;;;;;;;;;;;;;17.01;64.96;98250.31;4948967;28;19932;-81
2023/10/20 01:40:09;;;;;;;;;;;;;;;17.00;65.05;98256.91;4959693;28;19923;-77
2023/10/20 01:42:34;;;;;;;;;;;;;;;17.00;64.73;98254.19;4955961;28;19922;-77
2023/10/20 01:45:00;;;;;;;;;;;;;;;17.02;64.66;98256.56;4964387;28;20588;-77
2023/10/20 01:47:25;;;;;;;;;;;;;;;17.04;64.88;98251.56;4962446;28;19973;-78
2023/10/20 01:49:50;;;;;;;;;;;;;;;17.05;64.60;98242.22;4963864;28;19926;-77
2023/10/20 01:52:16;;;;;;;;;;;;;;;17.05;64.48;98236.78;4959589;28;20306;-76
2023/10/20 01:54:41;;;;;;;;;;;;;;;17.05;64.73;98217.69;4952371;28;19922;-77
2023/10/20 01:57:08;;;;;;;;;;;;;;;17.04;64.58;98197.81;4950686;29;19925;-78
2023/10/20 01:59:33;;;;;;;;;;;;;;;17.05;64.69;98195.88;4946786;29;20434;-78
2023/10/20 02:01:58;;;;;;;;;;;;;;;17.03;64.98;98198.97;4963284;28;19977;-76
2023/10/20 02:04:24;;;;;;;;;;;;;;;17.02;64.61;98199.28;4949557;28;19922;-79
2023/10/20 02:06:49;;;;;;;;;;;;;;;17.02;64.66;98193.84;4942619;28;19922;-77
2023/10/20 02:09:14;;;;;;;;;;;;;;;17.01;64.70;98184.88;4944378;29;20438;-77
2023/10/20 02:11:39;;;;;;;;;;;;;;;17.03;64.67;98181.78;4960866;28;20025;-79
2023/10/20 02:14:05;;;;;;;;;;;;;;;17.03;64.63;98190.78;4944168;29;20290;-76
2023/10/20 02:16:30;;;;;;;;;;;;;;;17.04;64.82;98186.13;4948223;28;20005;-77
2023/10/20 02:18:55;;;;;;;;;;;;;;;17.04;64.88;98170.53;4946055;29;19922;-78
2023/10/20 02:21:21;;;;;;;;;;;;;;;17.04;64.66;98172.47;4956665;28;19941;-76
2023/10/20 02:23:46;;;;;;;;;;;;;;;17.02;64.69;98167.34;4949959;28;19919;-78
2023/10/20 02:26:12;;;;;;;;;;;;;;;17.01;64.84;98162.25;4945385;29;19922;-77
2023/10/20 02:28:37;;;;;;;;;;;;;;;16.99;64.95;98148.97;4947259;29;19926;-77
2023/10/20 02:31:13;;;;;;;;;;;;;;;16.97;64.88;98134.88;4945357;29;19926;-77
2023/10/20 02:33:38;;;;;;;;;;;;;;;16.97;64.80;98125.91;4949406;29;19965;-79
2023/10/20 02:36:04;;;;;;;;;;;;;;;16.97;65.31;98125.91;4948192;29;19926;-77
2023/10/20 02:38:30;;;;;;;;;;;;;;;16.96;64.91;98127.88;4959686;28;19966;-75
2023/10/20 02:40:55;;;;;;;;;;;;;;;16.95;64.88;98123.53;4949768;28;19923;-78
2023/10/20 02:43:21;;;;;;;;;;;;;;;16.94;65.02;98121.16;4944532;29;19942;-76
2023/10/20 02:45:55;;;;;;;;;;;;;;;16.94;65.22;98113.00;4956110;28;20426;-80
2023/10/20 02:48:24;;;;;;;;;;;;;;;16.95;65.00;98109.91;4945678;28;19988;-80
2023/10/20 02:50:49;;;;;;;;;;;;;;;16.94;65.24;98094.69;4947768;28;19918;-77
2023/10/20 02:53:14;;;;;;;;;;;;;;;16.95;65.08;98101.72;4951927;29;19922;-79
2023/10/20 02:55:41;;;;;;;;;;;;;;;16.95;65.27;98096.25;4958319;28;19927;-75
2023/10/20 02:58:07;;;;;;;;;;;;;;;16.94;65.29;98086.50;4941605;28;20338;-80
2023/10/20 03:00:33;;;;;;;;;;;;;;;16.94;65.38;98088.44;4947915;28;19942;-77
2023/10/20 03:02:58;;;;;;;;;;;;;;;16.93;65.12;98084.13;4947709;29;19918;-77
2023/10/20 03:05:27;;;;;;;;;;;;;;;16.92;65.39;98071.66;4948809;29;19922;-76
2023/10/20 03:07:52;;;;;;;;;;;;;;;16.92;65.50;98058.00;4944051;29;19919;-76
2023/10/20 03:10:17;;;;;;;;;;;;;;;16.91;65.41;98065.41;4945435;28;19945;-76
2023/10/20 03:12:43;;;;;;;;;;;;;;;16.90;65.48;98063.00;4950237;29;19965;-79
2023/10/20 03:15:11;;;;;;;;;;;;;;;16.89;65.55;98062.22;4948065;29;19927;-78
2023/10/20 03:17:36;;;;;;;;;;;;;;;16.90;65.49;98060.28;4959357;28;19926;-78
2023/10/20 03:20:01;;;;;;;;;;;;;;;16.89;65.68;98073.13;4955424;28;20330;-77
2023/10/20 03:22:27;;;;;;;;;;;;;;;16.88;65.86;98066.09;4919848;29;19929;-77
2023/10/20 03:24:53;;;;;;;;;;;;;;;16.89;65.60;98061.44;4957189;28;20338;-79
2023/10/20 03:27:19;;;;;;;;;;;;;;;16.90;65.54;98054.84;4942961;29;19915;-80
2023/10/20 03:29:44;;;;;;;;;;;;;;;16.89;66.09;98042.34;4961598;28;19922;-76
2023/10/20 03:32:10;;;;;;;;;;;;;;;16.87;66.06;98035.31;4941839;29;19922;-78
2023/10/20 03:34:35;;;;;;;;;;;;;;;16.88;65.65;98025.19;4945433;28;19953;-76
2023/10/20 03:37:01;;;;;;;;;;;;;;;16.88;66.22;98011.56;4945381;29;19930;-79
2023/10/20 03:39:27;;;;;;;;;;;;;;;16.86;66.00;98022.81;4944725;29;19922;-78
2023/10/20 03:41:52;;;;;;;;;;;;;;;16.86;66.17;98016.59;4944511;28;20264;-78
2023/10/20 03:44:21;;;;;;;;;;;;;;;16.84;66.38;98022.38;4944927;29;19976;-76
2023/10/20 03:46:49;;;;;;;;;;;;;;;16.84;65.89;98025.09;4951801;29;19926;-79
2023/10/20 03:49:15;;;;;;;;;;;;;;;16.85;66.24;98026.69;4952186;28;20016;-76
2023/10/20 03:51:48;;;;;;;;;;;;;;;16.86;66.33;98014.66;4945352;28;20295;-76
2023/10/20 03:54:14;;;;;;;;;;;;;;;16.85;66.47;97999.41;4956598;28;20384;-76
2023/10/20 03:56:41;;;;;;;;;;;;;;;16.85;66.28;98002.13;4944971;28;20030;-75
2023/10/20 03:59:06;;;;;;;;;;;;;;;16.85;66.50;97998.63;4940600;29;19930;-76
2023/10/20 04:01:32;;;;;;;;;;;;;;;16.85;66.42;97995.91;4945782;29;19922;-76
2023/10/20 04:03:57;;;;;;;;;;;;;;;16.85;66.40;97990.44;4941521;29;19919;-78
2023/10/20 04:06:22;;;;;;;;;;;;;;;16.87;66.31;97990.91;4961580;28;19926;-76
2023/10/20 04:08:48;;;;;;;;;;;;;;;16.88;66.44;97981.56;4946182;29;19945;-77
2023/10/20 04:11:14;;;;;;;;;;;;;;;16.89;66.13;97971.47;4958244;28;20061;-77
2023/10/20 04:13:39;;;;;;;;;;;;;;;16.91;66.21;97972.69;4942926;29;20009;-75
2023/10/20 04:16:14;;;;;;;;;;;;;;;16.91;66.42;97960.97;4945406;28;19918;-80
2023/10/20 04:18:39;;;;;;;;;;;;;;;16.93;66.29;97961.44;4946647;28;20379;-78
2023/10/20 04:21:05;;;;;;;;;;;;;;;16.92;66.56;97959.84;4957897;28;19922;-76
2023/10/20 04:23:30;;;;;;;;;;;;;;;16.89;66.55;97961.34;4945238;28;19918;-76
2023/10/20 04:25:55;;;;;;;;;;;;;;;16.89;66.46;97955.91;4957677;28;19930;-77
2023/10/20 04:28:41;;;;;;;;;;;;;;;16.90;66.72;97945.78;4942120;29;20365;-77
2023/10/20 04:56:19;;;;;;;;;;;;;;;16.88;66.48;97905.22;4945769;29;20414;-81
2023/10/20 04:58:11;;;;;;;;;;;;;;;16.91;66.38;97890.09;4943043;29;19930;-76
2023/10/20 05:00:37;;;;;;;;;;;;;;;16.89;66.52;97876.06;4937434;29;19929;-79
2023/10/20 05:06:19;;;;;;;;;;;;;;;16.89;66.54;97855.03;4950575;29;20017;-77
2023/10/20 05:10:38;;;;;;;;;;;;;;;16.90;66.63;97855.81;4960818;28;19927;-79
2023/10/20 05:13:04;;;;;;;;;;;;;;;16.91;66.95;97854.66;4944416;29;19922;-75
2023/10/20 05:15:32;;;;;;;;;;;;;;;16.89;66.61;97849.56;4951997;29;19922;-78
2023/10/20 05:17:57;;;;;;;;;;;;;;;16.88;66.95;97839.78;4928896;29;20407;-76
2023/10/20 05:20:24;;;;;;;;;;;;;;;16.89;66.73;97838.66;4956924;28;20009;-76
2023/10/20 05:22:49;;;;;;;;;;;;;;;16.88;66.81;97831.63;4949339;28;19925;-77
2023/10/20 05:25:14;;;;;;;;;;;;;;;16.87;66.92;97828.09;4948434;29;20306;-80
2023/10/20 05:27:40;;;;;;;;;;;;;;;16.88;66.65;97831.63;4941755;28;20339;-78
2023/10/20 05:30:05;;;;;;;;;;;;;;;16.87;66.89;97839.00;4951790;28;19918;-77
2023/10/20 05:32:31;;;;;;;;;;;;;;;16.87;66.99;97843.69;4949986;29;20293;-78
2023/10/20 05:35:00;;;;;;;;;;;;;;;16.88;66.52;97853.44;4958857;28;19922;-78
2023/10/20 05:37:25;;;;;;;;;;;;;;;16.89;66.67;97851.50;4948980;29;19928;-79
2023/10/20 05:39:51;;;;;;;;;;;;;;;16.89;66.58;97846.84;4961661;28;19922;-79
2023/10/20 05:42:17;;;;;;;;;;;;;;;16.92;66.40;97848.06;4944229;29;19929;-78
2023/10/20 05:47:34;;;;;;;;;;;;;;;16.92;66.45;97828.97;4932948;28;19922;-78
2023/10/20 05:50:00;;;;;;;;;;;;;;;16.92;66.32;97837.94;4951484;29;20302;-81
2023/10/20 05:52:26;;;;;;;;;;;;;;;16.91;66.39;97821.94;4947300;28;20384;-75
2023/10/20 05:54:53;;;;;;;;;;;;;;;16.91;66.27;97820.03;4952223;28;20049;-78
2023/10/20 05:57:19;;;;;;;;;;;;;;;16.91;66.67;97819.19;4960031;28;20002;-81
2023/10/20 05:59:46;;;;;;;;;;;;;;;16.90;66.67;97823.09;4945079;29;20025;-79
2023/10/20 06:02:11;;;;;;;;;;;;;;;16.88;66.65;97820.72;4956906;28;19952;-79
2023/10/20 06:04:37;;;;;;;;;;;;;;;16.89;66.38;97802.44;4948889;29;20035;-80
2023/10/20 06:07:03;;;;;;;;;;;;;;;16.88;66.34;97798.91;4957435;28;19923;-77
2023/10/20 06:09:28;;;;;;;;;;;;;;;16.89;66.12;97807.88;4945682;29;19918;-80
2023/10/20 06:11:54;;;;;;;;;;;;;;;16.89;66.20;97810.63;4944880;28;20302;-76
2023/10/20 06:14:23;;;;;;;;;;;;;;;16.90;66.29;97806.72;4951199;29;19929;-77
2023/10/20 06:16:49;;;;;;;;;;;;;;;16.90;66.18;97814.91;4948600;29;19941;-79
2023/10/20 06:19:15;;;;;;;;;;;;;;;16.89;66.23;97822.31;4945280;28;19915;-79
2023/10/20 06:21:42;;;;;;;;;;;;;;;16.89;66.30;97824.25;4960941;28;20013;-77
2023/10/20 06:24:11;;;;;;;;;;;;;;;16.88;66.21;97798.91;4941837;28;19924;-80
2023/10/20 06:26:36;;;;;;;;;;;;;;;16.86;66.74;97799.28;4944357;29;19919;-77
2023/10/20 06:29:02;;;;;;;;;;;;;;;16.85;66.79;97799.63;4965261;28;19925;-77
2023/10/20 06:31:29;;;;;;;;;;;;;;;16.82;66.72;97809.28;4944264;29;20415;-77
2023/10/20 06:34:40;;;;;;;;;;;;;;;16.82;66.82;97809.28;4961976;28;19923;-76
2023/10/20 06:36:47;;;;;;;;;;;;;;;16.82;66.69;97803.84;4940650;29;19918;-76
2023/10/20 06:39:13;;;;;;;;;;;;;;;16.82;66.75;97794.88;4950972;28;19922;-75
2023/10/20 06:41:38;;;;;;;;;;;;;;;16.82;66.51;97790.22;4949629;29;19977;-75
2023/10/20 06:44:04;;;;;;;;;;;;;;;16.81;66.55;97791.38;4946432;28;19923;-75
2023/10/20 06:46:29;;;;;;;;;;;;;;;16.81;66.82;97793.31;4944784;29;19941;-75
2023/10/20 06:48:56;;;;;;;;;;;;;;;16.81;66.56;97783.19;4962675;28;19923;-76
2023/10/20 06:51:21;;;;;;;;;;;;;;;16.81;66.51;97777.75;4940561;28;19926;-77
2023/10/20 06:53:46;;;;;;;;;;;;;;;16.80;66.60;97789.78;4947351;29;19918;-75
2023/10/20 06:56:12;;;;;;;;;;;;;;;16.80;66.49;97778.88;4961543;28;19932;-75
2023/10/20 06:58:37;;;;;;;;;;;;;;;16.80;66.57;97773.41;4945052;29;19914;-79
2023/10/20 07:01:05;;;;;;;;;;;;;;;16.80;66.64;97781.59;4955071;28;19926;-75
2023/10/20 07:03:32;;;;;;;;;;;;;;;16.81;66.72;97787.88;4949904;29;19926;-75
2023/10/20 07:05:57;;;;;;;;;;;;;;;16.82;66.89;97783.97;4955189;28;20045;-78
2023/10/20 07:08:24;;;;;;;;;;;;;;;16.80;66.67;97786.25;4945100;28;20022;-77
2023/10/20 07:10:50;;;;;;;;;;;;;;;16.79;66.67;97777.31;4958077;28;19922;-73
2023/10/20 07:13:17;;;;;;;;;;;;;;;16.79;66.86;97777.31;4947927;28;19919;-73
2023/10/20 07:15:42;;;;;;;;;;;;;;;16.78;66.94;97767.56;4944075;29;19965;-73
2023/10/20 07:18:08;;;;;;;;;;;;;;;16.78;66.88;97775.72;4943409;29;19957;-77
2023/10/20 07:20:38;;;;;;;;;;;;;;;16.78;67.07;97773.00;4959464;28;19930;-75
2023/10/20 07:23:05;;;;;;;;;;;;;;;16.77;66.67;97765.16;4946201;29;19922;-75
2023/10/20 07:25:30;;;;;;;;;;;;;;;16.77;66.84;97776.84;4941495;29;19921;-76
2023/10/20 07:27:57;;;;;;;;;;;;;;;16.76;67.21;97769.03;4947843;29;19922;-75
2023/10/20 07:30:22;;;;;;;;;;;;;;;16.75;67.18;97764.72;4946254;29;19919;-77
2023/10/20 07:32:47;;;;;;;;;;;;;;;16.75;67.03;97765.50;4959488;28;19922;-77
2023/10/20 07:35:13;;;;;;;;;;;;;;;16.73;67.09;97765.09;4959063;28;19990;-75
2023/10/20 07:37:39;;;;;;;;;;;;;;;16.74;67.24;97763.91;4957107;28;19922;-76
2023/10/20 07:40:05;;;;;;;;;;;;;;;16.75;66.95;97775.59;4943303;28;19918;-78
2023/10/20 07:42:32;;;;;;;;;;;;;;;16.75;67.14;97761.97;4947610;29;19942;-77
2023/10/20 07:45:02;;;;;;;;;;;;;;;16.75;67.22;97754.59;4948547;28;19925;-78
2023/10/20 07:47:28;;;;;;;;;;;;;;;16.74;67.35;97747.56;4959407;28;20510;-83
2023/10/20 07:49:53;;;;;;;;;;;;;;;16.74;67.51;97750.28;4962612;28;20012;-77
2023/10/20 07:52:19;;;;;;;;;;;;;;;16.75;67.43;97742.91;4964192;28;19922;-82
2023/10/20 07:54:44;;;;;;;;;;;;;;;16.73;67.52;97735.09;4947640;28;20401;-78
2023/10/20 07:57:10;;;;;;;;;;;;;;;16.73;67.29;97737.00;4949679;28;20013;-74
2023/10/20 07:59:35;;;;;;;;;;;;;;;16.73;67.03;97731.56;4932826;29;20279;-77
2023/10/20 08:02:01;;;;;;;;;;;;;;;16.72;66.95;97713.63;4950441;29;19918;-79
2023/10/20 08:04:27;;;;;;;;;;;;;;;16.72;67.42;97730.78;4949644;28;19919;-78
2023/10/20 08:06:54;;;;;;;;;;;;;;;16.72;67.21;97721.81;4947077;29;19918;-78
2023/10/20 08:09:20;;;;;;;;;;;;;;;16.73;67.18;97721.47;4938730;29;20003;-78
2023/10/20 08:11:45;;;;;;;;;;;;;;;16.74;67.14;97731.22;4966629;28;20058;-78
2023/10/20 08:14:11;;;;;;;;;;;;;;;16.73;67.34;97728.84;4951007;29;20290;-78
2023/10/20 08:16:36;;;;;;;;;;;;;;;16.72;67.30;97730.78;4950277;28;20062;-80
2023/10/20 08:19:01;;;;;;;;;;;;;;;16.71;67.28;97728.44;4965413;28;20259;-76
2023/10/20 08:21:29;;;;;;;;;;;;;;;16.70;67.34;97724.09;4947369;29;19929;-80
2023/10/20 08:23:55;;;;;;;;;;;;;;;16.69;67.55;97720.59;4951696;28;19919;-78
2023/10/20 08:26:21;;;;;;;;;;;;;;;16.72;67.15;97727.28;4954632;29;19936;-78
2023/10/20 08:28:48;;;;;;;;;;;;;;;16.70;67.68;97730.34;4955225;28;19969;-76
2023/10/20 08:31:16;;;;;;;;;;;;;;;16.70;67.67;97730.34;4954091;29;19973;-79
2023/10/20 08:33:42;;;;;;;;;;;;;;;16.69;67.76;97736.94;4968876;28;19934;-80
2023/10/20 08:36:20;;;;;;;;;;;;;;;16.67;67.39;97729.13;4950791;29;19965;-85
2023/10/20 08:38:47;;;;;;;;;;;;;;;16.66;67.17;97716.66;4936341;29;19923;-80
2023/10/20 08:41:16;;;;;;;;;;;;;;;16.66;67.55;97719.38;4942415;29;20343;-77
2023/10/20 08:43:42;;;;;;;;;;;;;;;16.65;67.42;97722.44;4962942;28;19918;-79
2023/10/20 08:46:11;;;;;;;;;;;;;;;16.64;67.63;97716.22;4951326;28;19930;-75
2023/10/20 08:48:40;;;;;;;;;;;;;;;16.65;67.45;97719.72;4960607;28;19962;-77
2023/10/20 08:51:05;;;;;;;;;;;;;;;16.64;67.14;97721.66;4959630;28;19923;-78
2023/10/20 08:53:37;;;;;;;;;;;;;;;16.64;67.42;97723.59;4939027;29;19925;-77
2023/10/20 08:56:05;;;;;;;;;;;;;;;16.61;67.51;97722.38;4960425;29;19973;-78
2023/10/20 08:58:31;;;;;;;;;;;;;;;16.60;67.29;97720.00;4956821;29;20035;-78
2023/10/20 09:00:57;;;;;;;;;;;;;;;16.60;67.17;97725.44;4956686;29;19959;-77
2023/10/20 09:03:23;;;;;;;;;;;;;;;16.61;67.25;97724.31;4949114;29;19922;-78
2023/10/20 09:05:49;;;;;;;;;;;;;;;16.60;67.19;97714.56;4954480;28;19924;-76
2023/10/20 09:08:15;;;;;;;;;;;;;;;16.61;67.04;97727.03;4949287;29;19927;-77
2023/10/20 09:10:47;;;;;;;;;;;;;;;16.60;67.34;97722.72;4935104;29;19973;-79
2023/10/20 09:13:12;;;;;;;;;;;;;;;16.60;67.25;97717.28;4948015;29;19918;-77
2023/10/20 09:15:37;;;;;;;;;;;;;;;16.57;67.17;97712.53;4952730;28;19946;-80
2023/10/20 09:18:06;;;;;;;;;;;;;;;16.55;67.47;97721.06;4935351;29;19954;-79
2023/10/20 09:20:32;;;;;;;;;;;;;;;16.56;67.15;97708.25;4943951;29;19965;-78
2023/10/20 09:22:57;;;;;;;;;;;;;;;16.53;67.46;97709.75;4958191;28;19920;-76
2023/10/20 09:25:22;;;;;;;;;;;;;;;16.52;67.61;97699.19;4940458;29;19929;-76
2023/10/20 09:27:48;;;;;;;;;;;;;;;16.52;67.16;97701.94;4972247;28;20027;-77
2023/10/20 09:30:14;;;;;;;;;;;;;;;16.54;67.20;97705.09;4963434;28;20270;-77
2023/10/20 09:32:39;;;;;;;;;;;;;;;16.53;67.00;97712.47;4940224;29;19963;-81
2023/10/20 09:35:05;;;;;;;;;;;;;;;16.54;67.05;97707.81;4936476;29;19961;-77
2023/10/20 09:37:30;;;;;;;;;;;;;;;16.53;67.38;97707.03;4953426;29;19937;-78
2023/10/20 09:40:14;;;;;;;;;;;;;;;16.54;66.97;97705.09;4969763;28;19926;-78
2023/10/20 09:42:46;;;;;;;;;;;;;;;16.52;67.21;97710.88;4958338;28;20268;-78
2023/10/20 09:45:14;;;;;;;;;;;;;;;16.51;67.28;97703.88;4964102;28;19918;-78
2023/10/20 09:47:42;;;;;;;;;;;;;;;16.51;66.78;97701.16;4953195;28;20378;-78
2023/10/20 09:50:11;;;;;;;;;;;;;;;16.49;67.28;97697.97;4953537;29;20013;-78
2023/10/20 09:52:37;;;;;;;;;;;;;;;16.48;67.31;97698.31;4951363;29;19926;-79
2023/10/20 09:55:03;;;;;;;;;;;;;;;16.46;66.90;97695.19;4949108;29;19929;-78
2023/10/20 09:57:29;;;;;;;;;;;;;;;16.45;66.84;97702.56;4943446;29;19921;-82
2023/10/20 09:59:54;;;;;;;;;;;;;;;16.44;67.31;97699.03;4957293;28;19922;-81
2023/10/20 10:02:26;;;;;;;;;;;;;;;16.42;67.01;97697.81;4962177;28;19926;-86
2023/10/20 10:04:52;;;;;;;;;;;;;;;16.38;67.31;97686.84;4943755;28;19922;-80
2023/10/20 10:07:25;;;;;;;;;;;;;;;16.35;67.13;97690.25;4949211;28;19926;-81
2023/10/20 10:09:52;;;;;;;;;;;;;;;16.34;67.32;97682.47;4951061;29;19922;-82
2023/10/20 10:12:18;;;;;;;;;;;;;;;16.34;67.02;97685.19;4945473;28;19936;-78
2023/10/20 10:14:54;;;;;;;;;;;;;;;16.33;66.97;97692.56;4936534;28;19970;-82
2023/10/20 10:17:20;;;;;;;;;;;;;;;16.34;67.23;97683.25;4958010;28;20334;-79
2023/10/20 10:19:48;;;;;;;;;;;;;;;16.34;66.88;97688.69;4944549;28;20382;-80
2023/10/20 10:22:15;;;;;;;;;;;;;;;16.33;66.92;97687.13;4948341;28;20001;-79
2023/10/20 10:24:48;;;;;;;;;;;;;;;16.34;67.21;97685.97;4951539;29;19993;-82
2023/10/20 10:27:16;;;;;;;;;;;;;;;16.33;66.92;97678.97;4948756;29;19918;-81
2023/10/20 10:29:46;;;;;;;;;;;;;;;16.35;67.13;97675.88;4946639;29;19934;-77
2023/10/20 10:32:14;;;;;;;;;;;;;;;16.35;67.04;97670.41;4949258;29;19929;-78
2023/10/20 10:34:47;;;;;;;;;;;;;;;16.34;67.05;97661.47;4948800;29;19922;-79
2023/10/20 10:37:13;;;;;;;;;;;;;;;16.36;66.95;97656.44;4944229;29;20009;-81
2023/10/20 10:39:39;;;;;;;;;;;;;;;16.38;66.83;97653.38;4951808;28;20338;-81
2023/10/20 10:42:05;;;;;;;;;;;;;;;16.37;66.79;97654.50;4947775;28;19922;-80
2023/10/20 10:44:37;;;;;;;;;;;;;;;16.38;66.60;97648.72;4951627;28;19925;-81
2023/10/20 10:47:03;;;;;;;;;;;;;;;16.39;66.94;97647.56;4945227;29;19977;-79
2023/10/20 10:49:28;;;;;;;;;;;;;;;16.39;66.88;97642.13;4947222;29;19918;-81
2023/10/20 10:51:55;;;;;;;;;;;;;;;16.40;66.71;97634.72;4934262;29;19933;-79
2023/10/20 10:54:21;;;;;;;;;;;;;;;16.40;66.59;97638.25;4945927;29;19918;-80
2023/10/20 10:56:47;;;;;;;;;;;;;;;16.40;66.49;97632.00;4943492;29;19929;-80
2023/10/20 10:59:12;;;;;;;;;;;;;;;16.40;66.60;97629.28;4941368;29;19926;-80
2023/10/20 11:01:39;;;;;;;;;;;;;;;16.42;66.58;97624.25;4951552;29;19922;-81
2023/10/20 11:04:05;;;;;;;;;;;;;;;16.45;66.46;97618.09;4941454;28;19996;-81
2023/10/20 11:06:32;;;;;;;;;;;;;;;16.44;66.63;97600.97;4951307;29;19923;-83
2023/10/20 11:08:57;;;;;;;;;;;;;;;16.47;66.28;97601.41;4940810;29;19966;-79
2023/10/20 11:11:25;;;;;;;;;;;;;;;16.47;66.52;97595.94;4963096;28;19968;-83
2023/10/20 11:13:50;;;;;;;;;;;;;;;16.47;66.75;97607.63;4952400;28;19914;-79
2023/10/20 11:16:16;;;;;;;;;;;;;;;16.47;66.42;97602.19;4958415;28;19926;-78
2023/10/20 11:18:44;;;;;;;;;;;;;;;16.47;66.34;97595.94;4947843;28;19923;-80
2023/10/20 11:21:11;;;;;;;;;;;;;;;16.47;66.42;97590.50;4943259;29;19918;-78
2023/10/20 11:23:36;;;;;;;;;;;;;;;16.47;66.73;97582.34;4949976;28;20359;-78
2023/10/20 11:26:02;;;;;;;;;;;;;;;16.46;66.45;97581.53;4943019;29;19918;-78
2023/10/20 11:28:29;;;;;;;;;;;;;;;16.46;66.65;97584.28;4945429;28;19938;-80
2023/10/20 11:30:54;;;;;;;;;;;;;;;16.44;66.57;97587.34;4949845;29;19918;-82
2023/10/20 11:33:20;;;;;;;;;;;;;;;16.44;66.48;97592.78;4949574;29;19922;-80
2023/10/20 11:35:45;;;;;;;;;;;;;;;16.45;66.58;97585.41;4950815;29;19949;-80
2023/10/20 11:38:12;;;;;;;;;;;;;;;16.46;66.56;97583.50;4951645;28;19914;-81
2023/10/20 11:40:38;;;;;;;;;;;;;;;16.47;66.48;97588.56;4952705;28;20379;-82
2023/10/20 11:43:04;;;;;;;;;;;;;;;16.47;66.65;97587.78;4930803;29;19929;-80
2023/10/20 11:45:29;;;;;;;;;;;;;;;16.48;66.47;97573.00;4953942;28;20363;-79
2023/10/20 11:47:55;;;;;;;;;;;;;;;16.49;66.64;97577.31;4951219;28;19942;-81
2023/10/20 11:50:20;;;;;;;;;;;;;;;16.50;66.69;97565.25;4967433;28;20023;-82
2023/10/20 11:52:45;;;;;;;;;;;;;;;16.52;66.23;97560.25;4948528;28;19966;-83
2023/10/20 11:55:11;;;;;;;;;;;;;;;16.52;66.35;97561.03;4938136;29;20006;-84
2023/10/20 11:57:40;;;;;;;;;;;;;;;16.53;66.35;97554.44;4955287;29;19954;-83
2023/10/20 12:00:09;;;;;;;;;;;;;;;16.53;66.49;97551.72;4953462;29;19961;-82
2023/10/20 12:02:35;;;;;;;;;;;;;;;16.54;66.27;97566.13;4949492;29;20339;-86
2023/10/20 12:05:00;;;;;;;;;;;;;;;16.53;66.31;97559.09;4954520;28;20371;-84
2023/10/20 12:07:26;;;;;;;;;;;;;;;16.52;66.14;97552.84;4940726;29;19977;-86
2023/10/20 12:09:51;;;;;;;;;;;;;;;16.53;66.27;97548.19;4958522;28;20268;-85
2023/10/20 12:12:17;;;;;;;;;;;;;;;16.56;66.46;97544.78;4954820;28;19938;-85
2023/10/20 12:14:42;;;;;;;;;;;;;;;16.57;66.40;97554.50;4954409;29;19923;-87
2023/10/20 12:17:07;;;;;;;;;;;;;;;16.57;66.11;97546.34;4954862;29;19965;-83
2023/10/20 12:19:33;;;;;;;;;;;;;;;16.60;66.38;97545.59;4954715;29;19965;-84
2023/10/20 12:21:58;;;;;;;;;;;;;;;16.61;66.31;97555.38;4955765;28;20267;-85
2023/10/20 12:24:23;;;;;;;;;;;;;;;16.63;66.17;97558.50;4947113;29;19923;-84
2023/10/20 12:26:49;;;;;;;;;;;;;;;16.64;65.83;97552.69;4969626;28;19973;-88
2023/10/20 12:29:19;;;;;;;;;;;;;;;16.65;65.70;97561.66;4955083;29;19977;-84
2023/10/20 12:31:44;;;;;;;;;;;;;;;16.65;65.61;97581.53;4955973;28;19923;-87
2023/10/20 12:34:09;;;;;;;;;;;;;;;16.66;65.65;97598.69;4955755;29;19922;-87
2023/10/20 12:36:35;;;;;;;;;;;;;;;16.66;65.47;97587.78;4955724;29;20394;-88
2023/10/20 12:39:01;;;;;;;;;;;;;;;16.67;65.63;97575.72;4938877;29;19985;-89
2023/10/20 12:41:28;;;;;;;;;;;;;;;16.68;65.60;97582.72;4954403;28;19918;-90
2023/10/20 12:43:54;;;;;;;;;;;;;;;16.70;65.58;97585.91;4970372;28;19922;-75
2023/10/20 12:46:19;;;;;;;;;;;;;;;16.71;66.02;97587.50;4965759;28;20018;-88
2023/10/20 12:48:46;;;;;;;;;;;;;;;16.72;66.08;97589.06;4984790;28;19926;-83
2023/10/20 12:51:12;;;;;;;;;;;;;;;16.75;65.83;97599.22;4991744;28;19975;-91
2023/10/20 12:53:37;;;;;;;;;;;;;;;16.76;65.63;97611.72;4969247;29;19925;-84
2023/10/20 12:56:03;;;;;;;;;;;;;;;16.77;65.52;97610.56;4954439;28;19918;-84
2023/10/20 12:58:28;;;;;;;;;;;;;;;16.78;65.48;97614.09;4951994;29;19965;-84
2023/10/20 13:00:53;;;;;;;;;;;;;;;16.78;65.49;97617.63;4946653;29;19926;-86
2023/10/20 13:03:19;;;;;;;;;;;;;;;16.77;65.95;97618.75;4959066;28;19929;-84
2023/10/20 13:05:44;;;;;;;;;;;;;;;16.77;65.88;97631.59;4958127;29;20021;-84
2023/10/20 13:08:10;;;;;;;;;;;;;;;16.78;65.67;97642.16;4971867;28;20270;-84
2023/10/20 13:10:36;;;;;;;;;;;;;;;16.77;66.09;97637.81;4948629;28;19926;-84
2023/10/20 13:13:01;;;;;;;;;;;;;;;16.76;65.90;97641.72;4958762;28;20343;-84
2023/10/20 13:15:28;;;;;;;;;;;;;;;16.76;65.65;97647.16;4947841;29;19915;-83